Time;durP1;ratioP1;P1;durP2;ratioP2;P2;SDS_P1;SDS_P2;PMS_P1;PMS_P2;Temp;Humidity;BMP_temperature;BMP_pressure;BME280_temperature;BME280_humidity;BME280_pressure;Samples;Min_cycle;Max_cycle;Signal;HPM_P1;HPM_P2
2021/10/06 00:03:27;;;;;;;1999.90;999.90;;;;;;;14.40;81.54;100569.50;15659936;28;19979;-63
2021/10/06 00:10:59;;;;;;;1999.90;999.90;;;;;;;14.17;82.01;100580.53;15677292;28;20071;-63
2021/10/06 00:18:32;;;;;;;1999.90;999.90;;;;;;;14.09;82.66;100587.97;15674958;28;20533;-63
2021/10/06 00:26:06;;;;;;;1999.90;999.90;;;;;;;14.00;82.93;100594.91;15597492;28;20073;-63
2021/10/06 00:33:39;;;;;;;;;;;;;;;14.03;82.69;100585.75;15608223;28;20042;-61
2021/10/06 00:41:11;;;;;;;;;;;;;;;14.25;81.47;100587.97;15609702;28;19921;-64
2021/10/06 00:48:45;;;;;;;1999.90;999.90;;;;;;;14.04;81.98;100590.19;15626120;28;20344;-64
2021/10/06 00:56:19;;;;;;;1999.90;999.90;;;;;;;13.86;82.69;100604.56;15608607;28;20437;-64
2021/10/06 01:03:52;;;;;;;;;;;;;;;13.91;82.66;100606.28;15645458;22;20045;-62
2021/10/06 01:11:25;;;;;;;1999.90;999.90;;;;;;;13.65;83.81;100611.53;15707795;28;20433;-61
2021/10/06 01:18:59;;;;;;;1999.90;999.90;;;;;;;13.95;82.99;100620.41;15680959;28;20048;-59
2021/10/06 01:26:32;;;;;;;1999.90;999.90;;;;;;;14.13;82.14;100616.09;15663666;28;20045;-60
2021/10/06 01:34:05;;;;;;;1999.90;999.90;;;;;;;14.30;81.36;100614.97;15681815;28;20112;-60
2021/10/06 01:41:39;;;;;;;1999.90;999.90;;;;;;;14.51;81.25;100625.97;15678732;28;20112;-61
2021/10/06 01:49:12;;;;;;;1999.90;999.90;;;;;;;14.58;81.00;100620.50;15660861;28;20575;-60
2021/10/06 01:56:46;;;;;;;1999.90;999.90;;;;;;;14.78;80.52;100624.22;15644740;28;20128;-62
2021/10/06 02:04:18;;;;;;;1999.90;999.90;;;;;;;14.82;80.23;100642.81;15677100;28;20487;-60
2021/10/06 02:11:52;;;;;;;1999.90;999.90;;;;;;;14.99;80.06;100644.41;15678371;28;20041;-61
2021/10/06 02:19:24;;;;;;;1999.90;999.90;;;;;;;14.77;80.49;100651.50;15649900;28;20099;-61
2021/10/06 02:26:57;;;;;;;1999.90;999.90;;;;;;;14.99;79.92;100662.06;15614907;28;20486;-61
2021/10/06 02:34:30;;;;;;;1999.90;999.90;;;;;;;14.96;80.06;100670.44;15597714;28;20506;-61
2021/10/06 02:42:03;;;;;;;1999.90;999.90;;;;;;;14.89;80.41;100673.88;15596308;28;20367;-61
2021/10/06 02:49:36;;;;;;;1999.90;999.90;;;;;;;15.12;80.09;100676.03;15595312;28;20574;-57
2021/10/06 02:57:09;;;;;;;1999.90;999.90;;;;;;;15.09;80.24;100693.59;15613046;28;20045;-61
2021/10/06 03:04:42;;;;;;;1999.90;999.90;;;;;;;15.05;80.49;100692.72;15612329;28;20046;-61
2021/10/06 03:12:16;;;;;;;1999.90;999.90;;;;;;;15.18;80.61;100702.66;15612759;28;20447;-60
2021/10/06 03:19:49;;;;;;;1999.90;999.90;;;;;;;15.15;80.73;100720.28;15624953;28;20182;-62
2021/10/06 03:27:24;;;;;;;1999.90;999.90;;;;;;;15.25;80.78;100747.81;15673422;28;20060;-61
2021/10/06 03:34:56;;;;;;;1999.90;999.90;;;;;;;15.28;80.57;100753.53;15655376;28;20094;-59
2021/10/06 03:42:29;;;;;;;1999.90;999.90;;;;;;;15.30;80.79;100762.41;15673332;28;20072;-62
2021/10/06 03:50:02;;;;;;;1999.90;999.90;;;;;;;15.20;80.82;100774.19;15670706;28;20037;-61
2021/10/06 03:57:36;;;;;;;1999.90;999.90;;;;;;;15.20;81.02;100782.63;15672408;28;20052;-60
2021/10/06 04:05:10;;;;;;;1999.90;999.90;;;;;;;15.28;80.70;100786.44;15671360;28;20045;-61
2021/10/06 04:12:44;;;;;;;1999.90;999.90;;;;;;;15.25;80.82;100798.44;15672571;28;20041;-61
2021/10/06 04:20:16;;;;;;;1999.90;999.90;;;;;;;15.27;80.81;100810.94;15654508;28;20085;-60
2021/10/06 04:27:50;;;;;;;1999.90;999.90;;;;;;;15.27;80.99;100835.41;15610562;28;20521;-62
2021/10/06 04:35:22;;;;;;;1999.90;999.90;;;;;;;15.11;80.73;100837.38;15610147;28;20144;-61
2021/10/06 04:42:56;;;;;;;1999.90;999.90;;;;;;;15.18;79.97;100838.41;15592934;28;20065;-60
2021/10/06 04:50:30;;;;;;;1999.90;999.90;;;;;;;14.98;80.21;100848.69;15591073;28;20059;-61
2021/10/06 04:58:04;;;;;;;1999.90;999.90;;;;;;;15.01;80.64;100870.47;15591730;28;20052;-62
2021/10/06 05:05:36;;;;;;;1999.90;999.90;;;;;;;14.82;80.11;100875.97;15609267;28;20399;-59
2021/10/06 05:13:10;;;;;;;1999.90;999.90;;;;;;;14.73;79.88;100889.34;15591138;28;20129;-61
2021/10/06 05:20:42;;;;;;;1999.90;999.90;;;;;;;14.51;80.69;100901.13;15637473;28;20544;-62
2021/10/06 05:28:16;;;;;;;1999.90;999.90;;;;;;;14.39;80.55;100913.97;15680203;28;20052;-58
2021/10/06 05:35:49;;;;;;;1999.90;999.90;;;;;;;14.34;79.72;100928.25;15680273;28;20041;-57
2021/10/06 05:43:22;;;;;;;1999.90;999.90;;;;;;;14.16;80.75;100924.88;15679676;28;20092;-59
2021/10/06 05:50:55;;;;;;;1999.90;999.90;;;;;;;14.18;79.84;100929.34;15664242;28;20127;-62
2021/10/06 05:58:29;;;;;;;1999.90;999.90;;;;;;;14.02;80.46;100932.03;15677857;28;20052;-62
2021/10/06 06:06:01;;;;;;;1999.90;999.90;;;;;;;14.26;80.46;100946.03;15678724;28;20408;-61
2021/10/06 06:13:34;;;;;;;1999.90;999.90;;;;;;;14.19;80.21;100964.66;15660132;28;20049;-60
2021/10/06 06:21:07;;;;;;;1999.90;999.90;;;;;;;14.38;79.46;100978.88;15653844;28;20053;-60
2021/10/06 06:28:40;;;;;;;1999.90;999.90;;;;;;;14.20;80.34;100972.72;15596445;28;20045;-60
2021/10/06 06:36:13;;;;;;;1999.90;999.90;;;;;;;14.51;79.31;100999.41;15614705;28;20552;-60
2021/10/06 06:43:46;;;;;;;1999.90;999.90;;;;;;;15.28;76.64;101005.72;15596902;28;20128;-61
2021/10/06 06:51:19;;;;;;;1999.90;999.90;;;;;;;16.58;70.99;101020.00;15614730;28;20045;-59
2021/10/06 06:58:53;;;;;;;1999.90;999.90;;;;;;;17.64;67.07;101018.69;15596929;28;20375;-59
2021/10/06 07:06:27;;;;;;;1999.90;999.90;;;;;;;17.73;66.16;101046.72;15624167;22;20053;-64
2021/10/06 07:14:01;;;;;;;1999.90;999.90;;;;;;;18.00;65.34;101056.06;15580700;28;20041;-63
2021/10/06 07:21:34;;;;;;;1999.90;999.90;;;;;;;18.06;63.50;101063.06;15614005;28;20050;-61
2021/10/06 07:29:08;;;;;;;1999.90;999.90;;;;;;;17.95;63.52;101085.44;15613843;28;20048;-62
2021/10/06 07:36:40;;;;;;;1999.90;999.90;;;;;;;17.71;63.72;101106.31;15611625;28;20519;-63
2021/10/06 07:44:14;;;;;;;1999.90;999.90;;;;;;;18.43;61.54;101102.84;15592816;28;20358;-61
2021/10/06 07:51:46;;;;;;;1999.90;999.90;;;;;;;18.09;61.65;101096.19;15594413;28;20129;-61
2021/10/06 07:59:20;;;;;;;1999.90;999.90;;;;;;;19.21;60.14;101106.94;15593412;28;20041;-62
2021/10/06 08:06:52;;;;;;;1999.90;999.90;;;;;;;19.68;58.81;101122.53;15612140;28;20472;-61
2021/10/06 08:14:35;;;;;;;1999.90;999.90;;;;;;;19.26;58.60;101131.22;15611026;28;20141;-61
2021/10/06 08:22:07;;;;;;;1999.90;999.90;;;;;;;19.46;56.33;101138.41;15576769;28;20054;-62
2021/10/06 08:29:40;;;;;;;1999.90;999.90;;;;;;;19.78;57.17;101149.34;15592789;28;20072;-63
2021/10/06 08:37:13;;;;;;;1999.90;999.90;;;;;;;20.66;55.20;101157.22;15592916;28;20053;-60
2021/10/06 08:44:51;;;;;;;1999.90;999.90;;;;;;;20.62;54.70;101171.34;15592721;28;20107;-62
2021/10/06 08:52:24;;;;;;;1999.90;999.90;;;;;;;20.57;55.33;101177.38;15614995;28;20045;-62
2021/10/06 08:59:58;;;;;;;1999.90;999.90;;;;;;;21.18;52.95;101189.25;15622693;28;20366;-63
2021/10/06 09:07:30;;;;;;;1999.90;999.90;;;;;;;20.97;52.40;101204.09;15625357;28;20494;-63
2021/10/06 09:15:11;;;;;;;1999.90;999.90;;;;;;;21.01;53.71;101204.91;15624925;28;20049;-63
2021/10/06 09:22:46;;;;;;;1999.90;999.90;;;;;;;21.64;50.72;101208.63;15607244;28;20077;-62
2021/10/06 09:30:20;;;;;;;1999.90;999.90;;;;;;;22.00;51.68;101215.31;15620315;28;20048;-63
2021/10/06 09:37:54;;;;;;;1999.90;999.90;;;;;;;23.06;50.18;101222.50;15619121;28;20128;-62
2021/10/06 09:45:30;;;;;;;1999.90;999.90;;;;;;;21.63;51.41;101226.88;15618072;28;20056;-62
2021/10/06 09:53:07;;;;;;;1999.90;999.90;;;;;;;21.78;51.34;101240.78;15618046;28;20068;-61
2021/10/06 10:00:44;;;;;;;1999.90;999.90;;;;;;;22.64;51.14;101258.19;15616325;28;20133;-61
2021/10/06 10:08:17;;;;;;;1999.90;999.90;;;;;;;22.35;48.73;101258.09;15618182;28;20083;-62
2021/10/06 10:15:51;;;;;;;1999.90;999.90;;;;;;;21.59;48.47;101260.94;15599513;28;20045;-62
2021/10/06 10:23:25;;;;;;;1999.90;999.90;;;;;;;20.20;52.54;101276.53;15598612;28;20034;-62
2021/10/06 10:31:01;;;;;;;1999.90;999.90;;;;;;;20.81;49.47;101274.44;15597539;28;20405;-62
2021/10/06 10:38:35;;;;;;;1999.90;999.90;;;;;;;22.95;46.24;101273.72;15615771;28;20060;-60
2021/10/06 10:46:11;;;;;;;1999.90;999.90;;;;;;;22.73;46.71;101284.22;15598422;28;20044;-62
2021/10/06 10:53:59;;;;;;;1999.90;999.90;;;;;;;24.05;43.34;101290.72;15614348;28;20100;-62
2021/10/06 11:01:41;;;;;;;1999.90;999.90;;;;;;;23.64;43.69;101301.81;15614356;28;20041;-61
2021/10/06 11:09:46;;;;;;;1999.90;999.90;;;;;;;22.09;45.99;101299.03;15614100;28;20049;-62
2021/10/06 11:17:20;;;;;;;1999.90;999.90;;;;;;;21.04;48.71;101298.56;15613588;28;20057;-63
2021/10/06 11:24:54;;;;;;;1999.90;999.90;;;;;;;20.81;49.27;101291.44;15611928;28;20103;-63
2021/10/06 11:32:28;;;;;;;1999.90;999.90;;;;;;;19.94;48.60;101294.41;15612375;28;20554;-61
2021/10/06 11:40:00;;;;;;;1999.90;999.90;;;;;;;19.71;51.07;101313.50;15612165;28;20099;-60
2021/10/06 11:47:36;;;;;;;1999.90;999.90;;;;;;;22.08;46.20;101308.72;15594309;28;20049;-62
2021/10/06 11:55:09;;;;;;;1999.90;999.90;;;;;;;21.61;47.64;101309.63;15577687;28;20041;-61
2021/10/06 12:02:44;;;;;;;1999.90;999.90;;;;;;;20.72;49.83;101298.22;15612546;28;20140;-62
2021/10/06 12:10:16;;;;;;;1999.90;999.90;;;;;;;20.83;50.46;101303.22;15594043;28;20391;-62
2021/10/06 12:17:51;;;;;;;1999.90;999.90;;;;;;;21.01;50.46;101318.41;15593783;28;20120;-62
2021/10/06 12:25:25;;;;;;;1999.90;999.90;;;;;;;21.48;46.71;101314.81;15612406;28;20056;-63
2021/10/06 12:33:03;;;;;;;1999.90;999.90;;;;;;;20.55;49.13;101318.72;15588835;28;20041;-62
2021/10/06 12:40:39;;;;;;;1999.90;999.90;;;;;;;20.58;49.81;101323.59;15621938;28;20060;-62
2021/10/06 12:48:13;;;;;;;1999.90;999.90;;;;;;;20.72;49.52;101335.09;15621718;28;20049;-62
2021/10/06 12:55:45;;;;;;;1999.90;999.90;;;;;;;20.14;50.58;101337.59;15620950;28;20049;-62
2021/10/06 13:03:19;;;;;;;1999.90;999.90;;;;;;;20.23;51.45;101345.81;15621439;28;20049;-62
2021/10/06 13:10:51;;;;;;;1999.90;999.90;;;;;;;20.66;50.10;101348.00;15678168;22;20183;-61
2021/10/06 13:18:25;;;;;;;1999.90;999.90;;;;;;;20.34;51.45;101358.91;15669489;28;20049;-62
2021/10/06 13:25:57;;;;;;;1999.90;999.90;;;;;;;20.27;51.09;101355.16;15686314;28;20049;-61
2021/10/06 13:33:31;;;;;;;1999.90;999.90;;;;;;;20.12;52.26;101369.13;15686825;28;20077;-63
2021/10/06 13:41:07;;;;;;;1999.90;999.90;;;;;;;19.89;51.88;101369.19;15650934;28;20106;-62
2021/10/06 13:48:41;;;;;;;1999.90;999.90;;;;;;;19.44;51.58;101384.19;15685764;28;20041;-62
2021/10/06 13:56:14;;;;;;;1999.90;999.90;;;;;;;19.86;50.89;101400.28;15685265;28;20069;-61
2021/10/06 14:03:49;;;;;;;1999.90;999.90;;;;;;;19.26;52.16;101392.34;15684217;28;20123;-63
2021/10/06 14:11:22;;;;;;;1999.90;999.90;;;;;;;19.34;52.19;101401.78;15684307;28;20045;-62
2021/10/06 14:18:55;;;;;;;1999.90;999.90;;;;;;;19.53;52.79;101398.91;15664979;28;20052;-62
2021/10/06 14:26:28;;;;;;;1999.90;999.90;;;;;;;19.10;51.95;101402.97;15665420;28;20064;-62
2021/10/06 14:34:01;;;;;;;1999.90;999.90;;;;;;;18.60;50.79;101401.91;15648845;28;20047;-61
2021/10/06 14:41:35;;;;;;;1999.90;999.90;;;;;;;18.76;52.34;101416.03;15683449;28;20049;-61
2021/10/06 14:49:08;;;;;;;1999.90;999.90;;;;;;;18.75;52.42;101428.50;15684980;28;20091;-61
2021/10/06 14:56:41;;;;;;;1999.90;999.90;;;;;;;19.05;52.08;101434.38;15682525;28;20040;-63
2021/10/06 15:04:14;;;;;;;1999.90;999.90;;;;;;;19.04;52.34;101442.03;15680820;28;20501;-63
2021/10/06 15:11:47;;;;;;;1999.90;999.90;;;;;;;18.64;53.30;101452.84;15682104;28;20094;-62
2021/10/06 15:19:22;;;;;;;1999.90;999.90;;;;;;;18.86;52.79;101457.84;15647634;28;20254;-63
2021/10/06 15:26:54;;;;;;;1999.90;999.90;;;;;;;19.01;52.54;101456.13;15680599;28;20513;-63
2021/10/06 15:34:28;;;;;;;1999.90;999.90;;;;;;;18.64;52.44;101467.84;15661584;28;20041;-63
2021/10/06 15:42:01;;;;;;;1999.90;999.90;;;;;;;18.69;52.58;101473.22;15662203;28;20041;-63
2021/10/06 15:49:35;;;;;;;1999.90;999.90;;;;;;;18.73;54.28;101481.78;15679063;28;20048;-64
2021/10/06 15:57:09;;;;;;;1999.90;999.90;;;;;;;18.69;53.18;101478.06;15678912;28;20052;-64
2021/10/06 16:04:43;;;;;;;;;;;;;;;18.38;54.58;101479.75;15678410;28;20126;-62
2021/10/06 16:12:17;;;;;;;1999.90;999.90;;;;;;;17.83;56.64;101495.75;15677519;28;20015;-63
2021/10/06 16:19:51;;;;;;;1999.90;999.90;;;;;;;17.94;56.76;101510.13;15676798;28;20048;-63
2021/10/06 16:27:23;;;;;;;1999.90;999.90;;;;;;;17.42;58.28;101528.06;15676614;28;20091;-63
2021/10/06 16:34:57;;;;;;;1999.90;999.90;;;;;;;17.96;57.62;101536.00;15659563;28;20068;-62
2021/10/06 16:42:29;;;;;;;1999.90;999.90;;;;;;;17.50;58.64;101544.00;15658944;28;20409;-63
2021/10/06 16:50:05;;;;;;;1999.90;999.90;;;;;;;17.27;59.80;101563.50;15676824;28;20064;-63
2021/10/06 16:57:38;;;;;;;1999.90;999.90;;;;;;;17.06;60.76;101576.13;15676857;28;20478;-63
2021/10/06 17:05:12;;;;;;;1999.90;999.90;;;;;;;16.90;61.54;101576.91;15658712;28;20053;-63
2021/10/06 17:12:44;;;;;;;1999.90;999.90;;;;;;;16.66;62.36;101585.31;15680378;28;20049;-63
2021/10/06 17:20:18;;;;;;;1999.90;999.90;;;;;;;16.57;62.34;101593.94;15686399;28;20494;-63
2021/10/06 17:27:50;;;;;;;1999.90;999.90;;;;;;;16.67;62.37;101601.06;15653025;28;20045;-63
2021/10/06 17:35:28;;;;;;;1999.90;999.90;;;;;;;16.63;61.94;101608.59;15686237;28;20056;-63
2021/10/06 17:43:03;;;;;;;1999.90;999.90;;;;;;;16.51;62.57;101622.69;15668416;28;20055;-62
2021/10/06 17:50:37;;;;;;;1999.90;999.90;;;;;;;16.32;62.89;101628.88;15659996;28;20167;-62
2021/10/06 17:58:10;;;;;;;1999.90;999.90;;;;;;;16.15;63.42;101627.06;15654272;28;20033;-60
2021/10/06 18:05:44;;;;;;;1999.90;999.90;;;;;;;16.06;64.46;101638.47;15680085;28;20044;-62
2021/10/06 18:13:17;;;;;;;1999.90;999.90;;;;;;;15.97;64.07;101656.63;15668940;28;20299;-61
2021/10/06 18:20:51;;;;;;;1999.90;999.90;;;;;;;15.83;65.02;101652.09;15664686;28;20057;-61
2021/10/06 18:28:23;;;;;;;1999.90;999.90;;;;;;;14.56;69.25;101653.50;15663136;28;20476;-60
2021/10/06 18:35:58;;;;;;;1999.90;999.90;;;;;;;15.17;67.54;101673.63;15660476;28;20052;-61
2021/10/06 18:43:30;;;;;;;1999.90;999.90;;;;;;;15.25;67.06;101676.41;15679037;28;20128;-60
2021/10/06 18:51:04;;;;;;;1999.90;999.90;;;;;;;14.57;70.10;101683.22;15654254;28;20111;-60
2021/10/06 18:58:37;;;;;;;1999.90;999.90;;;;;;;14.69;69.15;101684.19;15645404;28;20072;-60
2021/10/06 19:06:11;;;;;;;1999.90;999.90;;;;;;;14.72;68.95;101691.09;15675556;28;20037;-59
2021/10/06 19:13:43;;;;;;;1999.90;999.90;;;;;;;14.54;68.93;101700.75;15675670;28;20064;-60
2021/10/06 19:21:19;;;;;;;1999.90;999.90;;;;;;;14.09;70.36;101707.63;15673089;28;20048;-58
2021/10/06 19:28:52;;;;;;;1999.90;999.90;;;;;;;13.83;70.38;101710.44;15677371;28;20067;-61
2021/10/06 19:36:31;;;;;;;1999.90;999.90;;;;;;;13.64;71.55;101731.56;15674991;28;20049;-59
2021/10/06 19:44:04;;;;;;;1999.90;999.90;;;;;;;13.50;71.59;101735.38;15650499;28;20558;-58
2021/10/06 19:51:38;;;;;;;1999.90;999.90;;;;;;;13.47;71.04;101741.63;15671894;28;20541;-61
2021/10/06 19:59:11;;;;;;;1999.90;999.90;;;;;;;13.31;71.53;101737.63;15642104;28;20048;-60
2021/10/06 20:06:45;;;;;;;1999.90;999.90;;;;;;;13.19;71.79;101743.06;15670061;28;20067;-60
2021/10/06 20:14:21;;;;;;;1999.90;999.90;;;;;;;12.90;72.52;101758.41;15676103;28;20084;-58
2021/10/06 20:21:56;;;;;;;1999.90;999.90;;;;;;;12.91;71.47;101756.44;15673347;28;20037;-60
2021/10/06 20:29:28;;;;;;;1999.90;999.90;;;;;;;12.69;71.96;101760.97;15653229;28;20426;-60
2021/10/06 20:37:12;;;;;;;1999.90;999.90;;;;;;;12.62;72.15;101769.03;15666637;28;20064;-59
2021/10/06 20:44:44;;;;;;;;;;;;;;;12.53;73.57;101772.91;15667609;28;20037;-61
2021/10/06 20:52:21;;;;;;;1999.90;999.90;;;;;;;12.45;72.72;101780.09;15686612;28;19920;-58
2021/10/06 20:59:54;;;;;;;1999.90;999.90;;;;;;;12.40;73.19;101785.81;15685263;28;20056;-59
2021/10/06 21:07:35;;;;;;;1999.90;999.90;;;;;;;12.46;72.38;101776.16;15682320;28;20087;-58
2021/10/06 21:15:09;;;;;;;1999.90;999.90;;;;;;;12.21;72.74;101791.66;15667626;28;20053;-61
2021/10/06 21:22:48;;;;;;;1999.90;999.90;;;;;;;12.08;72.41;101778.53;15695242;28;20458;-59
2021/10/06 21:30:21;;;;;;;1999.90;999.90;;;;;;;11.97;72.47;101789.13;15680813;28;20421;-63
2021/10/06 21:37:55;;;;;;;1999.90;999.90;;;;;;;11.77;73.07;101797.97;15649553;28;20071;-62
2021/10/06 21:45:29;;;;;;;1999.90;999.90;;;;;;;11.73;73.77;101808.97;15662029;28;20041;-61
2021/10/06 21:53:04;;;;;;;1999.90;999.90;;;;;;;11.73;72.89;101813.75;15684504;28;20090;-58
2021/10/06 22:00:39;;;;;;;1999.90;999.90;;;;;;;11.79;72.88;101821.75;15683374;28;20048;-58
2021/10/06 22:08:13;;;;;;;1999.90;999.90;;;;;;;11.47;73.23;101830.25;15665006;28;20551;-59
2021/10/06 22:15:46;;;;;;;1999.90;999.90;;;;;;;11.44;73.17;101830.88;15668244;28;20417;-58
2021/10/06 22:23:20;;;;;;;1999.90;999.90;;;;;;;11.44;73.10;101834.50;15683815;28;20049;-57
2021/10/06 22:30:52;;;;;;;;;;;;;;;11.44;73.12;101856.84;15665514;28;20048;-59
2021/10/06 22:38:26;;;;;;;1999.90;999.90;;;;;;;11.12;73.54;101860.56;15683341;28;19951;-60
2021/10/06 22:45:58;;;;;;;1999.90;999.90;;;;;;;10.99;72.61;101873.38;15648934;28;20044;-57
2021/10/06 22:53:32;;;;;;;1999.90;999.90;;;;;;;10.80;75.25;101874.59;15665132;28;20037;-59
2021/10/06 23:01:04;;;;;;;;;;;;;;;10.94;73.83;101881.88;15680806;28;20243;-57
2021/10/06 23:08:38;;;;;;;1999.90;999.90;;;;;;;10.93;73.55;101902.53;15672037;28;20250;-59
2021/10/06 23:16:10;;;;;;;1999.90;999.90;;;;;;;10.85;73.03;101899.63;15655121;28;20048;-60
2021/10/06 23:23:44;;;;;;;1999.90;999.90;;;;;;;10.64;73.72;101905.56;15679842;28;20107;-59
2021/10/06 23:31:18;;;;;;;;;;;;;;;10.57;73.66;101918.25;15660474;28;20061;-59
2021/10/06 23:38:52;;;;;;;1999.90;999.90;;;;;;;10.43;74.25;101922.97;15661338;28;19983;-59
2021/10/06 23:46:24;;;;;;;;;;;;;;;10.55;72.50;101929.72;15674443;28;20037;-60
2021/10/06 23:53:58;;;;;;;1999.90;999.90;;;;;;;10.24;74.03;101948.91;15677185;28;19925;-60
